sensor_id;sensor_type;location;lat;lon;timestamp;P1;durP1;ratioP1;P2;durP2;ratioP2
16813;SDS011;8524;57.650;11.926;2023-08-20T00:00:20;6.30;;;5.70;;
16813;SDS011;8524;57.650;11.926;2023-08-20T00:02:47;6.13;;;5.63;;
16813;SDS011;8524;57.650;11.926;2023-08-20T00:05:23;5.90;;;5.30;;
16813;SDS011;8524;57.650;11.926;2023-08-20T00:07:50;6.50;;;6.00;;
16813;SDS011;8524;57.650;11.926;2023-08-20T00:10:17;7.03;;;6.50;;
16813;SDS011;8524;57.650;11.926;2023-08-20T00:12:44;6.53;;;5.97;;
16813;SDS011;8524;57.650;11.926;2023-08-20T00:15:11;6.93;;;6.33;;
16813;SDS011;8524;57.650;11.926;2023-08-20T00:17:39;7.07;;;6.37;;
16813;SDS011;8524;57.650;11.926;2023-08-20T00:20:07;6.97;;;6.37;;
16813;SDS011;8524;57.650;11.926;2023-08-20T00:22:39;7.40;;;6.80;;
16813;SDS011;8524;57.650;11.926;2023-08-20T00:25:07;7.10;;;6.40;;
16813;SDS011;8524;57.650;11.926;2023-08-20T00:27:36;7.13;;;6.43;;
16813;SDS011;8524;57.650;11.926;2023-08-20T00:30:03;7.13;;;6.43;;
16813;SDS011;8524;57.650;11.926;2023-08-20T00:32:31;7.10;;;6.50;;
16813;SDS011;8524;57.650;11.926;2023-08-20T00:34:58;7.00;;;6.30;;
16813;SDS011;8524;57.650;11.926;2023-08-20T00:37:25;7.43;;;6.63;;
16813;SDS011;8524;57.650;11.926;2023-08-20T00:39:53;6.70;;;6.20;;
16813;SDS011;8524;57.650;11.926;2023-08-20T00:42:20;8.00;;;6.83;;
16813;SDS011;8524;57.650;11.926;2023-08-20T00:44:47;7.13;;;6.43;;
16813;SDS011;8524;57.650;11.926;2023-08-20T00:47:16;6.90;;;6.30;;
16813;SDS011;8524;57.650;11.926;2023-08-20T00:49:45;7.63;;;7.03;;
16813;SDS011;8524;57.650;11.926;2023-08-20T00:52:12;6.80;;;6.30;;
16813;SDS011;8524;57.650;11.926;2023-08-20T00:54:41;7.00;;;6.30;;
16813;SDS011;8524;57.650;11.926;2023-08-20T00:57:11;7.20;;;6.60;;
16813;SDS011;8524;57.650;11.926;2023-08-20T00:59:40;7.13;;;6.53;;
16813;SDS011;8524;57.650;11.926;2023-08-20T01:02:08;7.40;;;6.80;;
16813;SDS011;8524;57.650;11.926;2023-08-20T01:04:35;7.13;;;6.53;;
16813;SDS011;8524;57.650;11.926;2023-08-20T01:07:04;7.10;;;6.40;;
16813;SDS011;8524;57.650;11.926;2023-08-20T01:09:37;6.33;;;5.83;;
16813;SDS011;8524;57.650;11.926;2023-08-20T01:12:17;5.97;;;5.47;;
16813;SDS011;8524;57.650;11.926;2023-08-20T01:14:45;6.85;;;6.25;;
16813;SDS011;8524;57.650;11.926;2023-08-20T01:17:12;5.23;;;4.83;;
16813;SDS011;8524;57.650;11.926;2023-08-20T01:19:39;5.50;;;4.97;;
16813;SDS011;8524;57.650;11.926;2023-08-20T01:22:13;5.77;;;5.33;;
16813;SDS011;8524;57.650;11.926;2023-08-20T01:24:58;5.30;;;4.80;;
16813;SDS011;8524;57.650;11.926;2023-08-20T01:27:33;5.13;;;4.70;;
16813;SDS011;8524;57.650;11.926;2023-08-20T01:30:12;4.73;;;4.43;;
16813;SDS011;8524;57.650;11.926;2023-08-20T01:32:39;4.70;;;4.30;;
16813;SDS011;8524;57.650;11.926;2023-08-20T01:35:08;4.40;;;4.00;;
16813;SDS011;8524;57.650;11.926;2023-08-20T01:37:38;4.80;;;4.40;;
16813;SDS011;8524;57.650;11.926;2023-08-20T01:40:06;4.00;;;3.70;;
16813;SDS011;8524;57.650;11.926;2023-08-20T01:42:35;4.60;;;4.30;;
16813;SDS011;8524;57.650;11.926;2023-08-20T01:45:02;3.90;;;3.60;;
16813;SDS011;8524;57.650;11.926;2023-08-20T01:47:32;4.53;;;4.20;;
16813;SDS011;8524;57.650;11.926;2023-08-20T01:49:59;6.17;;;5.57;;
16813;SDS011;8524;57.650;11.926;2023-08-20T01:52:26;5.67;;;5.27;;
16813;SDS011;8524;57.650;11.926;2023-08-20T01:54:54;5.93;;;5.53;;
16813;SDS011;8524;57.650;11.926;2023-08-20T01:57:21;6.53;;;6.03;;
16813;SDS011;8524;57.650;11.926;2023-08-20T01:59:48;6.68;;;6.18;;
16813;SDS011;8524;57.650;11.926;2023-08-20T02:02:15;6.87;;;6.27;;
16813;SDS011;8524;57.650;11.926;2023-08-20T02:04:44;6.73;;;6.17;;
16813;SDS011;8524;57.650;11.926;2023-08-20T02:07:11;7.07;;;6.47;;
16813;SDS011;8524;57.650;11.926;2023-08-20T02:09:37;6.20;;;5.77;;
16813;SDS011;8524;57.650;11.926;2023-08-20T02:12:05;5.63;;;5.23;;
16813;SDS011;8524;57.650;11.926;2023-08-20T02:14:32;5.90;;;5.40;;
16813;SDS011;8524;57.650;11.926;2023-08-20T02:17:00;5.27;;;4.87;;
16813;SDS011;8524;57.650;11.926;2023-08-20T02:19:27;4.63;;;4.30;;
16813;SDS011;8524;57.650;11.926;2023-08-20T02:21:55;4.93;;;4.53;;
16813;SDS011;8524;57.650;11.926;2023-08-20T02:24:22;4.90;;;4.53;;
16813;SDS011;8524;57.650;11.926;2023-08-20T02:26:49;4.60;;;4.30;;
16813;SDS011;8524;57.650;11.926;2023-08-20T02:29:16;4.83;;;4.53;;
16813;SDS011;8524;57.650;11.926;2023-08-20T02:31:43;5.33;;;4.93;;
16813;SDS011;8524;57.650;11.926;2023-08-20T02:34:10;5.27;;;4.87;;
16813;SDS011;8524;57.650;11.926;2023-08-20T02:36:37;4.60;;;4.30;;
16813;SDS011;8524;57.650;11.926;2023-08-20T02:39:06;5.03;;;4.63;;
16813;SDS011;8524;57.650;11.926;2023-08-20T02:41:33;5.10;;;4.70;;
16813;SDS011;8524;57.650;11.926;2023-08-20T02:44:01;4.80;;;4.50;;
16813;SDS011;8524;57.650;11.926;2023-08-20T02:46:28;4.57;;;4.20;;
16813;SDS011;8524;57.650;11.926;2023-08-20T02:48:55;4.90;;;4.50;;
16813;SDS011;8524;57.650;11.926;2023-08-20T02:51:22;4.30;;;4.00;;
16813;SDS011;8524;57.650;11.926;2023-08-20T02:53:49;4.30;;;4.00;;
16813;SDS011;8524;57.650;11.926;2023-08-20T02:56:17;4.50;;;4.20;;
16813;SDS011;8524;57.650;11.926;2023-08-20T02:58:44;4.53;;;4.13;;
16813;SDS011;8524;57.650;11.926;2023-08-20T03:01:18;4.07;;;3.73;;
16813;SDS011;8524;57.650;11.926;2023-08-20T03:03:45;4.43;;;4.13;;
16813;SDS011;8524;57.650;11.926;2023-08-20T03:06:12;4.60;;;4.30;;
16813;SDS011;8524;57.650;11.926;2023-08-20T03:08:39;4.17;;;3.87;;
16813;SDS011;8524;57.650;11.926;2023-08-20T03:11:06;3.93;;;3.57;;
16813;SDS011;8524;57.650;11.926;2023-08-20T03:13:35;4.70;;;4.40;;
16813;SDS011;8524;57.650;11.926;2023-08-20T03:16:02;4.53;;;4.23;;
16813;SDS011;8524;57.650;11.926;2023-08-20T03:18:29;4.27;;;3.97;;
16813;SDS011;8524;57.650;11.926;2023-08-20T03:20:56;4.07;;;3.77;;
16813;SDS011;8524;57.650;11.926;2023-08-20T03:23:23;4.57;;;4.17;;
16813;SDS011;8524;57.650;11.926;2023-08-20T03:25:50;3.80;;;3.50;;
16813;SDS011;8524;57.650;11.926;2023-08-20T03:28:17;4.47;;;4.07;;
16813;SDS011;8524;57.650;11.926;2023-08-20T03:30:46;4.23;;;3.87;;
16813;SDS011;8524;57.650;11.926;2023-08-20T03:33:13;4.83;;;4.43;;
16813;SDS011;8524;57.650;11.926;2023-08-20T03:35:42;4.63;;;4.33;;
16813;SDS011;8524;57.650;11.926;2023-08-20T03:38:09;4.00;;;3.70;;
16813;SDS011;8524;57.650;11.926;2023-08-20T03:40:36;5.13;;;4.63;;
16813;SDS011;8524;57.650;11.926;2023-08-20T03:43:03;3.77;;;3.47;;
16813;SDS011;8524;57.650;11.926;2023-08-20T03:45:30;4.20;;;3.80;;
16813;SDS011;8524;57.650;11.926;2023-08-20T03:47:59;4.00;;;3.70;;
16813;SDS011;8524;57.650;11.926;2023-08-20T03:50:25;4.37;;;4.07;;
16813;SDS011;8524;57.650;11.926;2023-08-20T03:52:52;3.90;;;3.60;;
16813;SDS011;8524;57.650;11.926;2023-08-20T03:55:19;3.63;;;3.43;;
16813;SDS011;8524;57.650;11.926;2023-08-20T03:57:46;3.80;;;3.50;;
16813;SDS011;8524;57.650;11.926;2023-08-20T04:00:14;4.40;;;4.00;;
16813;SDS011;8524;57.650;11.926;2023-08-20T04:02:41;3.80;;;3.50;;
16813;SDS011;8524;57.650;11.926;2023-08-20T04:05:09;4.00;;;3.70;;
16813;SDS011;8524;57.650;11.926;2023-08-20T04:07:36;4.13;;;3.80;;
16813;SDS011;8524;57.650;11.926;2023-08-20T04:10:04;4.07;;;3.77;;
16813;SDS011;8524;57.650;11.926;2023-08-20T04:12:31;4.10;;;3.80;;
16813;SDS011;8524;57.650;11.926;2023-08-20T04:14:58;4.10;;;3.80;;
16813;SDS011;8524;57.650;11.926;2023-08-20T04:17:25;4.17;;;3.83;;
16813;SDS011;8524;57.650;11.926;2023-08-20T04:19:52;4.37;;;4.07;;
16813;SDS011;8524;57.650;11.926;2023-08-20T04:22:20;3.83;;;3.40;;
16813;SDS011;8524;57.650;11.926;2023-08-20T04:24:48;4.20;;;3.90;;
16813;SDS011;8524;57.650;11.926;2023-08-20T04:27:14;4.63;;;4.30;;
16813;SDS011;8524;57.650;11.926;2023-08-20T04:29:42;4.90;;;4.50;;
16813;SDS011;8524;57.650;11.926;2023-08-20T04:32:09;4.43;;;3.70;;
16813;SDS011;8524;57.650;11.926;2023-08-20T04:34:36;3.83;;;3.50;;
16813;SDS011;8524;57.650;11.926;2023-08-20T04:37:03;4.10;;;3.80;;
16813;SDS011;8524;57.650;11.926;2023-08-20T04:39:31;4.07;;;3.77;;
16813;SDS011;8524;57.650;11.926;2023-08-20T04:41:58;3.83;;;3.63;;
16813;SDS011;8524;57.650;11.926;2023-08-20T04:44:25;4.00;;;3.70;;
16813;SDS011;8524;57.650;11.926;2023-08-20T04:46:52;3.93;;;3.63;;
16813;SDS011;8524;57.650;11.926;2023-08-20T04:49:19;3.57;;;3.37;;
16813;SDS011;8524;57.650;11.926;2023-08-20T04:51:46;4.73;;;4.10;;
16813;SDS011;8524;57.650;11.926;2023-08-20T04:54:13;5.23;;;4.77;;
16813;SDS011;8524;57.650;11.926;2023-08-20T04:56:41;5.13;;;3.90;;
16813;SDS011;8524;57.650;11.926;2023-08-20T04:59:08;4.60;;;4.30;;
16813;SDS011;8524;57.650;11.926;2023-08-20T05:01:36;4.37;;;4.07;;
16813;SDS011;8524;57.650;11.926;2023-08-20T05:04:04;4.80;;;4.40;;
16813;SDS011;8524;57.650;11.926;2023-08-20T05:06:31;4.60;;;4.20;;
16813;SDS011;8524;57.650;11.926;2023-08-20T05:08:58;4.10;;;3.80;;
16813;SDS011;8524;57.650;11.926;2023-08-20T05:11:25;4.73;;;4.33;;
16813;SDS011;8524;57.650;11.926;2023-08-20T05:13:54;4.70;;;4.30;;
16813;SDS011;8524;57.650;11.926;2023-08-20T05:16:21;4.20;;;3.90;;
16813;SDS011;8524;57.650;11.926;2023-08-20T05:18:48;5.23;;;4.73;;
16813;SDS011;8524;57.650;11.926;2023-08-20T05:21:15;4.57;;;4.17;;
16813;SDS011;8524;57.650;11.926;2023-08-20T05:23:42;3.97;;;3.67;;
16813;SDS011;8524;57.650;11.926;2023-08-20T05:26:10;4.70;;;4.30;;
16813;SDS011;8524;57.650;11.926;2023-08-20T05:28:37;4.87;;;4.33;;
16813;SDS011;8524;57.650;11.926;2023-08-20T05:31:05;5.00;;;4.60;;
16813;SDS011;8524;57.650;11.926;2023-08-20T05:33:32;5.13;;;4.73;;
16813;SDS011;8524;57.650;11.926;2023-08-20T05:35:59;6.13;;;5.57;;
16813;SDS011;8524;57.650;11.926;2023-08-20T05:38:26;5.13;;;4.70;;
16813;SDS011;8524;57.650;11.926;2023-08-20T05:40:53;5.87;;;5.37;;
16813;SDS011;8524;57.650;11.926;2023-08-20T05:43:20;5.40;;;4.97;;
16813;SDS011;8524;57.650;11.926;2023-08-20T05:45:47;6.53;;;5.93;;
16813;SDS011;8524;57.650;11.926;2023-08-20T05:48:15;6.83;;;5.70;;
16813;SDS011;8524;57.650;11.926;2023-08-20T05:50:42;6.57;;;5.83;;
16813;SDS011;8524;57.650;11.926;2023-08-20T05:53:11;8.30;;;6.53;;
16813;SDS011;8524;57.650;11.926;2023-08-20T05:55:38;7.10;;;5.77;;
16813;SDS011;8524;57.650;11.926;2023-08-20T05:58:05;7.67;;;6.33;;
16813;SDS011;8524;57.650;11.926;2023-08-20T06:00:32;9.43;;;5.97;;
16813;SDS011;8524;57.650;11.926;2023-08-20T06:02:59;8.93;;;7.70;;
16813;SDS011;8524;57.650;11.926;2023-08-20T06:05:27;9.87;;;8.00;;
16813;SDS011;8524;57.650;11.926;2023-08-20T06:07:54;9.27;;;6.73;;
16813;SDS011;8524;57.650;11.926;2023-08-20T06:10:21;8.60;;;6.80;;
16813;SDS011;8524;57.650;11.926;2023-08-20T06:12:48;8.40;;;6.80;;
16813;SDS011;8524;57.650;11.926;2023-08-20T06:15:15;9.53;;;7.63;;
16813;SDS011;8524;57.650;11.926;2023-08-20T06:17:42;10.90;;;7.57;;
16813;SDS011;8524;57.650;11.926;2023-08-20T06:20:10;9.03;;;7.20;;
16813;SDS011;8524;57.650;11.926;2023-08-20T06:22:39;8.90;;;7.03;;
16813;SDS011;8524;57.650;11.926;2023-08-20T06:25:06;8.20;;;6.80;;
16813;SDS011;8524;57.650;11.926;2023-08-20T06:27:33;9.07;;;7.93;;
16813;SDS011;8524;57.650;11.926;2023-08-20T06:30:00;9.67;;;6.87;;
16813;SDS011;8524;57.650;11.926;2023-08-20T06:32:27;9.27;;;7.43;;
16813;SDS011;8524;57.650;11.926;2023-08-20T06:34:54;11.50;;;7.47;;
16813;SDS011;8524;57.650;11.926;2023-08-20T06:37:21;10.33;;;7.87;;
16813;SDS011;8524;57.650;11.926;2023-08-20T06:39:50;9.17;;;8.20;;
16813;SDS011;8524;57.650;11.926;2023-08-20T06:42:17;12.27;;;9.00;;
16813;SDS011;8524;57.650;11.926;2023-08-20T06:44:44;10.33;;;8.57;;
16813;SDS011;8524;57.650;11.926;2023-08-20T06:47:11;9.07;;;7.37;;
16813;SDS011;8524;57.650;11.926;2023-08-20T06:49:40;8.53;;;7.20;;
16813;SDS011;8524;57.650;11.926;2023-08-20T06:52:07;10.30;;;9.10;;
16813;SDS011;8524;57.650;11.926;2023-08-20T06:54:34;10.97;;;8.10;;
16813;SDS011;8524;57.650;11.926;2023-08-20T06:57:03;13.03;;;10.03;;
16813;SDS011;8524;57.650;11.926;2023-08-20T06:59:30;11.67;;;8.93;;
16813;SDS011;8524;57.650;11.926;2023-08-20T07:01:57;11.80;;;9.03;;
16813;SDS011;8524;57.650;11.926;2023-08-20T07:04:24;9.50;;;8.17;;
16813;SDS011;8524;57.650;11.926;2023-08-20T07:06:51;12.67;;;9.73;;
16813;SDS011;8524;57.650;11.926;2023-08-20T07:09:18;12.83;;;8.13;;
16813;SDS011;8524;57.650;11.926;2023-08-20T07:11:45;13.43;;;9.23;;
16813;SDS011;8524;57.650;11.926;2023-08-20T07:14:13;11.53;;;8.87;;
16813;SDS011;8524;57.650;11.926;2023-08-20T07:16:40;9.33;;;8.33;;
16813;SDS011;8524;57.650;11.926;2023-08-20T07:19:07;9.67;;;8.37;;
16813;SDS011;8524;57.650;11.926;2023-08-20T07:21:34;10.00;;;7.47;;
16813;SDS011;8524;57.650;11.926;2023-08-20T07:24:01;7.40;;;6.67;;
16813;SDS011;8524;57.650;11.926;2023-08-20T07:26:29;9.57;;;8.10;;
16813;SDS011;8524;57.650;11.926;2023-08-20T07:28:56;9.47;;;7.53;;
16813;SDS011;8524;57.650;11.926;2023-08-20T07:31:24;10.93;;;8.70;;
16813;SDS011;8524;57.650;11.926;2023-08-20T07:33:52;8.27;;;7.37;;
16813;SDS011;8524;57.650;11.926;2023-08-20T07:36:21;12.63;;;9.63;;
16813;SDS011;8524;57.650;11.926;2023-08-20T07:38:49;12.10;;;8.20;;
16813;SDS011;8524;57.650;11.926;2023-08-20T07:41:17;11.50;;;9.50;;
16813;SDS011;8524;57.650;11.926;2023-08-20T07:43:44;11.50;;;8.53;;
16813;SDS011;8524;57.650;11.926;2023-08-20T07:46:12;10.50;;;7.60;;
16813;SDS011;8524;57.650;11.926;2023-08-20T07:48:41;8.13;;;7.17;;
16813;SDS011;8524;57.650;11.926;2023-08-20T07:51:08;9.00;;;7.37;;
16813;SDS011;8524;57.650;11.926;2023-08-20T07:53:35;9.50;;;7.47;;
16813;SDS011;8524;57.650;11.926;2023-08-20T07:56:02;8.90;;;7.70;;
16813;SDS011;8524;57.650;11.926;2023-08-20T07:58:29;20.67;;;12.93;;
16813;SDS011;8524;57.650;11.926;2023-08-20T08:00:56;20.37;;;12.90;;
16813;SDS011;8524;57.650;11.926;2023-08-20T08:03:24;16.93;;;11.83;;
16813;SDS011;8524;57.650;11.926;2023-08-20T08:05:53;17.93;;;13.27;;
16813;SDS011;8524;57.650;11.926;2023-08-20T08:08:20;26.43;;;14.90;;
16813;SDS011;8524;57.650;11.926;2023-08-20T08:10:47;23.33;;;14.10;;
16813;SDS011;8524;57.650;11.926;2023-08-20T08:13:15;13.70;;;10.60;;
16813;SDS011;8524;57.650;11.926;2023-08-20T08:15:44;23.43;;;15.07;;
16813;SDS011;8524;57.650;11.926;2023-08-20T08:18:11;26.73;;;16.37;;
16813;SDS011;8524;57.650;11.926;2023-08-20T08:20:38;25.40;;;14.90;;
16813;SDS011;8524;57.650;11.926;2023-08-20T08:23:07;20.10;;;13.10;;
16813;SDS011;8524;57.650;11.926;2023-08-20T08:25:34;19.43;;;12.60;;
16813;SDS011;8524;57.650;11.926;2023-08-20T08:28:02;19.20;;;13.73;;
16813;SDS011;8524;57.650;11.926;2023-08-20T08:30:29;26.37;;;13.93;;
16813;SDS011;8524;57.650;11.926;2023-08-20T08:32:56;22.53;;;13.53;;
16813;SDS011;8524;57.650;11.926;2023-08-20T08:35:24;13.67;;;10.37;;
16813;SDS011;8524;57.650;11.926;2023-08-20T08:37:51;13.60;;;9.90;;
16813;SDS011;8524;57.650;11.926;2023-08-20T08:40:19;14.20;;;10.03;;
16813;SDS011;8524;57.650;11.926;2023-08-20T08:42:48;13.60;;;10.20;;
16813;SDS011;8524;57.650;11.926;2023-08-20T08:45:17;11.23;;;8.53;;
16813;SDS011;8524;57.650;11.926;2023-08-20T08:47:46;14.13;;;9.70;;
16813;SDS011;8524;57.650;11.926;2023-08-20T08:50:13;13.53;;;9.33;;
16813;SDS011;8524;57.650;11.926;2023-08-20T08:52:41;12.13;;;8.47;;
16813;SDS011;8524;57.650;11.926;2023-08-20T08:55:08;11.80;;;8.47;;
16813;SDS011;8524;57.650;11.926;2023-08-20T08:57:37;12.23;;;7.60;;
16813;SDS011;8524;57.650;11.926;2023-08-20T09:00:04;10.23;;;7.77;;
16813;SDS011;8524;57.650;11.926;2023-08-20T09:02:32;13.00;;;8.80;;
16813;SDS011;8524;57.650;11.926;2023-08-20T09:04:59;12.40;;;8.00;;
16813;SDS011;8524;57.650;11.926;2023-08-20T09:07:26;11.97;;;7.37;;
16813;SDS011;8524;57.650;11.926;2023-08-20T09:09:57;10.47;;;7.27;;
16813;SDS011;8524;57.650;11.926;2023-08-20T09:12:24;8.90;;;6.07;;
16813;SDS011;8524;57.650;11.926;2023-08-20T09:14:54;9.27;;;5.90;;
16813;SDS011;8524;57.650;11.926;2023-08-20T09:17:25;10.33;;;6.67;;
16813;SDS011;8524;57.650;11.926;2023-08-20T09:19:53;9.57;;;6.50;;
16813;SDS011;8524;57.650;11.926;2023-08-20T09:22:22;9.40;;;6.17;;
16813;SDS011;8524;57.650;11.926;2023-08-20T09:24:52;10.13;;;5.77;;
16813;SDS011;8524;57.650;11.926;2023-08-20T09:27:20;13.97;;;6.70;;
16813;SDS011;8524;57.650;11.926;2023-08-20T09:29:48;8.47;;;5.40;;
16813;SDS011;8524;57.650;11.926;2023-08-20T09:32:17;8.97;;;5.37;;
16813;SDS011;8524;57.650;11.926;2023-08-20T09:34:45;9.53;;;5.93;;
16813;SDS011;8524;57.650;11.926;2023-08-20T09:37:13;11.50;;;5.90;;
16813;SDS011;8524;57.650;11.926;2023-08-20T09:39:41;10.33;;;6.17;;
16813;SDS011;8524;57.650;11.926;2023-08-20T09:42:09;9.93;;;6.10;;
16813;SDS011;8524;57.650;11.926;2023-08-20T09:44:37;9.47;;;6.10;;
16813;SDS011;8524;57.650;11.926;2023-08-20T09:47:06;8.60;;;5.97;;
16813;SDS011;8524;57.650;11.926;2023-08-20T09:49:41;10.43;;;5.63;;
16813;SDS011;8524;57.650;11.926;2023-08-20T09:52:09;9.80;;;6.30;;
16813;SDS011;8524;57.650;11.926;2023-08-20T09:54:50;11.53;;;6.80;;
16813;SDS011;8524;57.650;11.926;2023-08-20T09:57:26;11.93;;;6.67;;
16813;SDS011;8524;57.650;11.926;2023-08-20T09:59:59;11.27;;;6.73;;
16813;SDS011;8524;57.650;11.926;2023-08-20T10:02:27;12.87;;;7.23;;
16813;SDS011;8524;57.650;11.926;2023-08-20T10:04:56;9.17;;;6.37;;
16813;SDS011;8524;57.650;11.926;2023-08-20T10:07:27;9.63;;;6.63;;
16813;SDS011;8524;57.650;11.926;2023-08-20T10:09:56;11.83;;;7.47;;
16813;SDS011;8524;57.650;11.926;2023-08-20T10:12:25;9.33;;;5.67;;
16813;SDS011;8524;57.650;11.926;2023-08-20T10:14:53;9.17;;;6.00;;
16813;SDS011;8524;57.650;11.926;2023-08-20T10:17:22;12.53;;;7.20;;
16813;SDS011;8524;57.650;11.926;2023-08-20T10:19:49;10.13;;;5.80;;
16813;SDS011;8524;57.650;11.926;2023-08-20T10:22:19;13.40;;;6.93;;
16813;SDS011;8524;57.650;11.926;2023-08-20T10:24:47;13.20;;;7.97;;
16813;SDS011;8524;57.650;11.926;2023-08-20T10:27:23;10.17;;;5.53;;
16813;SDS011;8524;57.650;11.926;2023-08-20T10:29:52;9.97;;;6.30;;
16813;SDS011;8524;57.650;11.926;2023-08-20T10:32:19;11.77;;;6.30;;
16813;SDS011;8524;57.650;11.926;2023-08-20T10:34:49;10.20;;;6.60;;
16813;SDS011;8524;57.650;11.926;2023-08-20T10:37:26;10.37;;;5.70;;
16813;SDS011;8524;57.650;11.926;2023-08-20T10:39:54;10.80;;;5.43;;
16813;SDS011;8524;57.650;11.926;2023-08-20T10:42:26;9.90;;;5.73;;
16813;SDS011;8524;57.650;11.926;2023-08-20T10:44:58;7.57;;;5.30;;
16813;SDS011;8524;57.650;11.926;2023-08-20T10:47:25;6.97;;;4.67;;
16813;SDS011;8524;57.650;11.926;2023-08-20T10:50:01;8.00;;;4.80;;
16813;SDS011;8524;57.650;11.926;2023-08-20T10:52:30;11.00;;;4.67;;
16813;SDS011;8524;57.650;11.926;2023-08-20T10:54:57;6.03;;;4.33;;
16813;SDS011;8524;57.650;11.926;2023-08-20T10:57:32;8.80;;;5.30;;
16813;SDS011;8524;57.650;11.926;2023-08-20T11:00:01;8.20;;;4.47;;
16813;SDS011;8524;57.650;11.926;2023-08-20T11:02:36;9.80;;;5.40;;
16813;SDS011;8524;57.650;11.926;2023-08-20T11:05:09;8.17;;;5.20;;
16813;SDS011;8524;57.650;11.926;2023-08-20T11:07:44;7.23;;;4.20;;
16813;SDS011;8524;57.650;11.926;2023-08-20T11:10:13;9.70;;;4.60;;
16813;SDS011;8524;57.650;11.926;2023-08-20T11:12:40;7.50;;;4.10;;
16813;SDS011;8524;57.650;11.926;2023-08-20T11:15:09;8.83;;;4.37;;
16813;SDS011;8524;57.650;11.926;2023-08-20T11:17:40;10.10;;;4.20;;
16813;SDS011;8524;57.650;11.926;2023-08-20T11:20:08;10.13;;;4.23;;
16813;SDS011;8524;57.650;11.926;2023-08-20T11:22:37;8.48;;;3.60;;
16813;SDS011;8524;57.650;11.926;2023-08-20T11:25:06;8.70;;;4.50;;
16813;SDS011;8524;57.650;11.926;2023-08-20T11:27:40;6.80;;;4.20;;
16813;SDS011;8524;57.650;11.926;2023-08-20T11:30:07;7.33;;;4.40;;
16813;SDS011;8524;57.650;11.926;2023-08-20T11:32:37;6.70;;;4.07;;
16813;SDS011;8524;57.650;11.926;2023-08-20T11:35:04;8.40;;;4.40;;
16813;SDS011;8524;57.650;11.926;2023-08-20T11:37:32;6.77;;;3.63;;
16813;SDS011;8524;57.650;11.926;2023-08-20T11:40:00;7.43;;;3.70;;
16813;SDS011;8524;57.650;11.926;2023-08-20T11:42:28;7.23;;;3.73;;
16813;SDS011;8524;57.650;11.926;2023-08-20T11:44:56;7.83;;;4.13;;
16813;SDS011;8524;57.650;11.926;2023-08-20T11:47:23;7.87;;;3.87;;
16813;SDS011;8524;57.650;11.926;2023-08-20T11:50:01;9.00;;;4.60;;
16813;SDS011;8524;57.650;11.926;2023-08-20T11:52:30;7.23;;;3.43;;
16813;SDS011;8524;57.650;11.926;2023-08-20T11:54:58;11.23;;;4.73;;
16813;SDS011;8524;57.650;11.926;2023-08-20T11:57:25;9.40;;;4.00;;
16813;SDS011;8524;57.650;11.926;2023-08-20T11:59:55;6.07;;;3.50;;
16813;SDS011;8524;57.650;11.926;2023-08-20T12:02:29;8.60;;;4.20;;
16813;SDS011;8524;57.650;11.926;2023-08-20T12:04:56;9.83;;;3.83;;
16813;SDS011;8524;57.650;11.926;2023-08-20T12:07:25;8.03;;;3.50;;
16813;SDS011;8524;57.650;11.926;2023-08-20T12:09:53;7.60;;;3.70;;
16813;SDS011;8524;57.650;11.926;2023-08-20T12:12:20;7.63;;;3.90;;
16813;SDS011;8524;57.650;11.926;2023-08-20T12:14:47;8.17;;;4.13;;
16813;SDS011;8524;57.650;11.926;2023-08-20T12:17:18;8.10;;;3.87;;
16813;SDS011;8524;57.650;11.926;2023-08-20T12:19:45;5.50;;;2.97;;
16813;SDS011;8524;57.650;11.926;2023-08-20T12:22:12;8.20;;;3.20;;
16813;SDS011;8524;57.650;11.926;2023-08-20T12:24:39;7.53;;;3.10;;
16813;SDS011;8524;57.650;11.926;2023-08-20T12:27:06;5.97;;;3.07;;
16813;SDS011;8524;57.650;11.926;2023-08-20T12:29:33;4.90;;;2.83;;
16813;SDS011;8524;57.650;11.926;2023-08-20T12:32:00;10.47;;;3.63;;
16813;SDS011;8524;57.650;11.926;2023-08-20T12:34:30;6.97;;;3.60;;
16813;SDS011;8524;57.650;11.926;2023-08-20T12:36:57;9.23;;;3.90;;
16813;SDS011;8524;57.650;11.926;2023-08-20T12:39:24;10.20;;;3.97;;
16813;SDS011;8524;57.650;11.926;2023-08-20T12:41:51;8.53;;;4.20;;
16813;SDS011;8524;57.650;11.926;2023-08-20T12:44:18;9.17;;;4.03;;
16813;SDS011;8524;57.650;11.926;2023-08-20T12:46:45;6.90;;;3.60;;
16813;SDS011;8524;57.650;11.926;2023-08-20T12:49:12;6.40;;;4.17;;
16813;SDS011;8524;57.650;11.926;2023-08-20T12:51:41;6.60;;;4.20;;
16813;SDS011;8524;57.650;11.926;2023-08-20T12:54:08;9.30;;;4.07;;
16813;SDS011;8524;57.650;11.926;2023-08-20T12:56:35;6.60;;;3.00;;
16813;SDS011;8524;57.650;11.926;2023-08-20T12:59:02;7.00;;;3.27;;
16813;SDS011;8524;57.650;11.926;2023-08-20T13:01:29;7.53;;;3.63;;
16813;SDS011;8524;57.650;11.926;2023-08-20T13:03:56;7.97;;;3.50;;
16813;SDS011;8524;57.650;11.926;2023-08-20T13:06:24;9.97;;;3.80;;
16813;SDS011;8524;57.650;11.926;2023-08-20T13:08:53;8.60;;;4.17;;
16813;SDS011;8524;57.650;11.926;2023-08-20T13:11:20;6.70;;;3.53;;
16813;SDS011;8524;57.650;11.926;2023-08-20T13:13:51;6.85;;;3.83;;
16813;SDS011;8524;57.650;11.926;2023-08-20T13:16:19;4.90;;;3.07;;
16813;SDS011;8524;57.650;11.926;2023-08-20T13:18:47;7.40;;;3.77;;
16813;SDS011;8524;57.650;11.926;2023-08-20T13:21:14;7.13;;;3.60;;
16813;SDS011;8524;57.650;11.926;2023-08-20T13:23:41;6.67;;;3.00;;
16813;SDS011;8524;57.650;11.926;2023-08-20T13:26:10;5.00;;;2.93;;
16813;SDS011;8524;57.650;11.926;2023-08-20T13:28:37;9.20;;;3.50;;
16813;SDS011;8524;57.650;11.926;2023-08-20T13:31:04;8.17;;;3.10;;
16813;SDS011;8524;57.650;11.926;2023-08-20T13:33:32;9.10;;;3.47;;
16813;SDS011;8524;57.650;11.926;2023-08-20T13:35:59;4.50;;;3.00;;
16813;SDS011;8524;57.650;11.926;2023-08-20T13:38:26;4.73;;;2.60;;
16813;SDS011;8524;57.650;11.926;2023-08-20T13:40:52;4.73;;;2.63;;
16813;SDS011;8524;57.650;11.926;2023-08-20T13:43:22;4.73;;;2.70;;
16813;SDS011;8524;57.650;11.926;2023-08-20T13:45:49;6.00;;;2.67;;
16813;SDS011;8524;57.650;11.926;2023-08-20T13:48:16;6.53;;;3.20;;
16813;SDS011;8524;57.650;11.926;2023-08-20T13:50:43;6.93;;;2.80;;
16813;SDS011;8524;57.650;11.926;2023-08-20T13:53:10;6.33;;;2.90;;
16813;SDS011;8524;57.650;11.926;2023-08-20T13:55:37;7.40;;;3.17;;
16813;SDS011;8524;57.650;11.926;2023-08-20T13:58:04;4.73;;;2.70;;
16813;SDS011;8524;57.650;11.926;2023-08-20T14:00:33;5.93;;;2.87;;
16813;SDS011;8524;57.650;11.926;2023-08-20T14:03:00;6.00;;;3.00;;
16813;SDS011;8524;57.650;11.926;2023-08-20T14:05:27;6.63;;;2.70;;
16813;SDS011;8524;57.650;11.926;2023-08-20T14:07:54;7.10;;;3.17;;
16813;SDS011;8524;57.650;11.926;2023-08-20T14:10:22;6.38;;;3.40;;
16813;SDS011;8524;57.650;11.926;2023-08-20T14:12:49;8.50;;;3.40;;
16813;SDS011;8524;57.650;11.926;2023-08-20T14:15:16;5.97;;;2.60;;
16813;SDS011;8524;57.650;11.926;2023-08-20T14:17:44;6.43;;;3.20;;
16813;SDS011;8524;57.650;11.926;2023-08-20T14:20:12;6.57;;;2.70;;
16813;SDS011;8524;57.650;11.926;2023-08-20T14:22:39;5.77;;;2.80;;
16813;SDS011;8524;57.650;11.926;2023-08-20T14:25:06;6.63;;;3.13;;
16813;SDS011;8524;57.650;11.926;2023-08-20T14:27:34;6.73;;;3.10;;
16813;SDS011;8524;57.650;11.926;2023-08-20T14:30:01;7.97;;;3.20;;
16813;SDS011;8524;57.650;11.926;2023-08-20T14:32:29;5.53;;;2.90;;
16813;SDS011;8524;57.650;11.926;2023-08-20T14:34:58;7.57;;;3.57;;
16813;SDS011;8524;57.650;11.926;2023-08-20T14:37:25;7.90;;;3.03;;
16813;SDS011;8524;57.650;11.926;2023-08-20T14:39:52;5.37;;;3.00;;
16813;SDS011;8524;57.650;11.926;2023-08-20T14:42:19;8.47;;;3.73;;
16813;SDS011;8524;57.650;11.926;2023-08-20T14:44:46;6.30;;;3.30;;
16813;SDS011;8524;57.650;11.926;2023-08-20T14:47:13;4.80;;;3.30;;